createdAt,value
2017-06-11T00:00:57.159Z,0
2017-06-11T00:10:57.108Z,0
2017-06-11T00:20:57.193Z,0
2017-06-11T00:30:57.174Z,0
2017-06-11T00:40:57.168Z,0
2017-06-11T00:50:59.127Z,0
2017-06-11T01:01:03.077Z,0
2017-06-11T01:10:57.194Z,0
2017-06-11T01:20:57.291Z,0
2017-06-11T01:30:58.310Z,0
2017-06-11T01:40:57.323Z,0
2017-06-11T01:50:57.243Z,0
2017-06-11T02:00:57.133Z,0
2017-06-11T02:10:57.300Z,0
2017-06-11T02:20:57.279Z,0
2017-06-11T02:30:59.850Z,4
2017-06-11T02:40:57.338Z,24
2017-06-11T02:50:58.135Z,60
2017-06-11T03:00:57.386Z,144
2017-06-11T03:10:57.464Z,284
2017-06-11T03:20:57.290Z,468
2017-06-11T03:30:57.288Z,812
2017-06-11T03:40:57.186Z,1672
2017-06-11T03:50:57.211Z,2148
2017-06-11T04:00:57.515Z,1888
2017-06-11T04:10:57.176Z,1752
2017-06-11T04:20:57.186Z,3996
2017-06-11T04:30:57.198Z,6568
2017-06-11T04:40:57.772Z,4572
2017-06-11T04:50:57.126Z,5124
2017-06-11T05:00:57.433Z,8164
2017-06-11T05:10:57.309Z,8524
2017-06-11T05:20:57.627Z,5472
2017-06-11T05:30:57.151Z,9100
2017-06-11T05:40:57.087Z,10844
2017-06-11T05:50:57.195Z,7080
2017-06-11T06:00:57.426Z,6764
2017-06-11T06:10:57.293Z,5096
2017-06-11T06:20:57.147Z,10036
2017-06-11T06:30:57.249Z,11404
2017-06-11T06:40:57.686Z,14916
2017-06-11T06:50:57.147Z,21152
2017-06-11T07:00:57.218Z,18004
2017-06-11T07:10:57.436Z,33600
2017-06-11T07:20:57.245Z,26336
2017-06-11T07:30:57.171Z,42784
2017-06-11T07:40:57.139Z,37696
2017-06-11T07:50:57.244Z,71936
2017-06-11T08:00:57.184Z,47936
2017-06-11T08:10:57.287Z,43104
2017-06-11T08:20:57.192Z,57024
2017-06-11T08:30:57.301Z,41856
2017-06-11T08:40:57.246Z,83264
2017-06-11T08:50:57.176Z,77632
2017-06-11T09:00:57.259Z,46208
2017-06-11T09:10:57.182Z,18440
2017-06-11T09:20:57.153Z,21056
2017-06-11T09:30:57.222Z,24768
2017-06-11T09:40:57.172Z,24320
2017-06-11T09:50:57.254Z,25408
2017-06-11T10:00:57.269Z,24192
2017-06-11T10:10:57.150Z,21472
2017-06-11T10:20:57.255Z,18504
2017-06-11T10:30:57.202Z,17096
2017-06-11T10:40:57.267Z,19968
2017-06-11T10:50:57.233Z,17292
2017-06-11T11:00:57.203Z,19616
2017-06-11T11:10:57.265Z,17568
2017-06-11T11:20:57.220Z,18560
2017-06-11T11:30:57.270Z,20128
2017-06-11T11:40:58.394Z,21536
2017-06-11T11:50:57.336Z,22752
2017-06-11T12:00:57.554Z,13992
2017-06-11T12:10:57.199Z,18008
2017-06-11T12:20:57.295Z,20352
2017-06-11T12:30:58.248Z,21696
2017-06-11T12:40:57.299Z,19776
2017-06-11T12:50:57.237Z,17420
2017-06-11T13:00:57.218Z,18976
2017-06-11T13:10:57.292Z,15696
2017-06-11T13:20:57.271Z,11176
2017-06-11T13:30:57.297Z,12272
2017-06-11T13:40:57.318Z,10540
2017-06-11T13:50:57.226Z,9248
2017-06-11T14:00:57.292Z,13184
2017-06-11T14:10:57.479Z,7392
2017-06-11T14:20:57.338Z,8156
2017-06-11T14:30:57.295Z,6420
2017-06-11T14:40:57.249Z,4208
2017-06-11T14:50:58.343Z,5132
2017-06-11T15:00:57.270Z,5980
2017-06-11T15:10:57.356Z,7648
2017-06-11T15:20:57.321Z,5384
2017-06-11T15:30:57.385Z,8288
2017-06-11T15:40:57.237Z,6592
2017-06-11T15:50:57.255Z,6680
2017-06-11T16:00:58.039Z,4652
2017-06-11T16:10:57.301Z,5576
2017-06-11T16:20:57.250Z,7456
2017-06-11T16:30:57.331Z,4912
2017-06-11T16:40:57.349Z,6004
2017-06-11T16:50:57.316Z,3892
2017-06-11T17:00:57.251Z,2916
2017-06-11T17:10:57.257Z,5784
2017-06-11T17:20:57.261Z,7488
2017-06-11T17:30:57.266Z,3556
2017-06-11T17:40:57.254Z,3268
2017-06-11T17:50:57.273Z,1196
2017-06-11T18:00:57.267Z,2096
2017-06-11T18:10:57.289Z,1616
2017-06-11T18:20:57.290Z,2640
2017-06-11T18:30:57.271Z,2000
2017-06-11T18:40:57.296Z,1352
2017-06-11T18:50:57.289Z,3684
2017-06-11T19:00:57.284Z,704
2017-06-11T19:10:57.277Z,740
2017-06-11T19:20:57.404Z,384
2017-06-11T19:30:57.342Z,148
2017-06-11T19:40:57.534Z,68
2017-06-11T19:50:57.314Z,48
2017-06-11T20:00:57.315Z,24
2017-06-11T20:10:57.399Z,16
2017-06-11T20:20:57.422Z,8
2017-06-11T20:30:57.389Z,4
2017-06-11T20:40:57.429Z,4
2017-06-11T20:50:57.421Z,4
2017-06-11T21:11:35.213Z,4
2017-06-11T22:20:57.320Z,0
2017-06-11T22:30:57.389Z,0
2017-06-11T22:40:57.420Z,0
2017-06-11T22:50:57.497Z,0
2017-06-11T23:00:57.367Z,0
2017-06-11T23:10:57.412Z,0
2017-06-11T23:20:57.474Z,0
2017-06-11T23:30:57.369Z,0
2017-06-11T23:40:57.504Z,0
2017-06-11T23:50:57.389Z,0
